Aérodrome :
LOGIN :

S'inscrire | Disclaimer

   EN    FR    IT 

 










Légende :    VFR   VFR Marginal   IFR   IFR Intensif   IFR Très Intensif
Visi : 
Plafond : 
>= 8 km
>= 3000ft
5 à 8 km
1000 à 3000 ft
1500m à 5 km
500 à 1000 ft
800 à 1500m
200 à 500 ft
< 800m
< 200 ft
Symboles :   Orages  Brouillard  Fortes neiges  Fortes précipitations  Vent > 20 kt
SIGMETs :   Divers  Orages  Givrage  Turbulence  Onde Orograph.  Cendres Volcan.






- Altitude de l'aérodrome : 375 ft
- Code IATA : MST


EHBK - Maastricht Aachen

DERNIER METAR :
  • 240055Z AUTO 23004KT 200V260 0300 R21/0400N FG VV000 01/01 Q1025

METARs EXPIRÉS :
  • 240025Z AUTO 23004KT 190V250 0350 R21/0450N FG VV000 01/01 Q1025
  • 232355Z AUTO VRB01KT 0400 R21/0550N FG VV000 01/01 Q1025
  • 232325Z AUTO VRB01KT 0400 R21/0550N FG VV000 01/01 Q1025
  • 232255Z AUTO 05003KT 010V090 0600 R21/0800N FG VV000 01/01 Q1025

TAF TAF EHBK
Valide du 24 à 00h jusqu'au 25 à 06h UTC


232317Z 2400/2506 21003KT 0400 FG VV001
PROB30 2400/2409 2000 BR BKN003
BECMG 2409/2412 6000 NSW BKN004
BECMG 2412/2415 9000 SCT012
PROB30 2412/2418 BKN012
BECMG 2417/2420 4000 BR
PROB40 2421/2506 0400 FZFG VV001



MET'MAP, la Météo Aéronautique d'un coup d'oeil ! - Copyright ORBIFLY Décembre 2007 - Disclaimer

ORBIFLY MET'MAP TEAM :

Programmation & Développement : Alexandra Zaïnal
Sur une idée originale de : Baudouin d'Aumeries
Assistance à la programmation : Marc-Olivier Méhu
Soutien technique & logistique : Manuel Goepfert

Contact : metmap@orbifly.com




SOURCES & CREDITS :

   NOAA